Aviation Digital Data Service (ADDS)

Output produced by METARs form (1503 UTC 29 May 2017)
found at http://www.aviationweather.gov/adds/metars/
 
UAAA 291400Z 00000MPS 9999 FEW050CB BKN100 24/14 Q1006 R23R/CLRD65 NOSIG
TAF AMD UAAA 291310Z 2914/3012 20006MPS 9999 SCT050CB BKN100 TX29/3009Z TN12/3001Z 
     TEMPO 2915/3006 VRB16MPS TSRA SQ BKN050CB BKN100 
     BECMG 3006/3007 32006MPS 
     TEMPO 3006/3012 VRB15MPS 3000 TSRA SQ BKN030CB OVC100
       
UAAH 291230Z 29016G22MPS 280V350 9000 -SHRA VCTS BKN030CB BKN093 20/14 Q1005 R23/0///60 NOSIG RMK QFE716/0954
TAF COR UAAH 291105Z 2912/2921 19005MPS 9999 SCT030CB BKN100 
     TEMPO 2912/2921 VRB15MPS -TSRA SQ
       
UACC 291430Z 21007MPS 9999 SCT043CB BKN100 18/14 Q0998 R22/250555 TEMPO VRB15MPS 3000 TSRA SQ BKN020CB RMK QFE718/0957
TAF UACC 291100Z 2912/3012 20006MPS 9999 SCT030CB BKN100 TX14/3009Z TN09/2924Z 
     TEMPO 2912/3002 VRB15MPS 3000 TSRA SQ BKN020CB 
     FM300200 31012MPS 9999 SCT020CB BKN100 
     TEMPO 3002/3012 VRB18MPS 5000 -TSRA SQ BKN020CB
       
UACK 291430Z 15003MPS 130V200 CAVOK 14/12 Q0997 R20/290155 NOSIG RMK QFE724/0966
TAF UACK 291100Z 2912/2921 22008MPS 9999 BKN020CB BKN100 
     TEMPO 2912/2916 VRB17MPS 2000 TSRA SQ BKN008CB
       
UACP 291130Z 02004MPS 010V100 9999 BKN009 OVC026CB 12/10 Q0998 R05/2/0557 NOSIG RMK QFE737/0982
TAF UACP 290759Z 2909/2918 02007MPS 9999 SCT008 BKN020CB 
     TEMPO 2909/2913 02010MPS 5000 -SHRA SCT005
       
UADD 291430Z 22012MPS 9999 BKN050CB OVC100 25/07 Q1009 R31/0///65 TEMPO 22018G23MPS RMK QFE699/0932
TAF UADD 291400Z 2915/2924 22010G15MPS 9999 BKN050CB OVC100 
     TEMPO 2915/2921 24020G25MPS -TSRA
       
UAII 291430Z 19008G13MPS 9999 -SHRA BKN030CB OVC100 22/13 Q1011 R10/1///60 TEMPO VRB15MPS TS RMK QFE723/0964
TAF COR UAII 291100Z 2912/3012 25008G13MPS 7000 BKN040CB BKN100 TX26/3009Z TN15/3001Z 
     TEMPO 2912/2915 20022G27MPS 3000 -TSRA BKN020CB 
     TEMPO 2915/2922 VRB15MPS 3000 -TSRA SCT010 BKN020CB 
     TEMPO 2922/3012 29005MPS SCT050
       
TAF UAKD 291400Z 2915/2924 23010MPS 9999 BKN030CB BKN100 
     TEMPO 2915/2918 25012MPS -SHRA 
     TEMPO 2918/2924 27014MPS 5000 -TSRA BKN020CB
       
UAKK 291430Z 24004MPS 9999 -SHRA BKN046CB 13/11 Q1003 R23/2///60 NOSIG RMK QFE706/0941
TAF UAKK 291100Z 2912/3012 22010MPS 9999 BKN040CB BKN100 TH16/3010Z TN06/3001Z 
     TEMPO 2912/2915 22013MPS 5000 -SHRA BKN030CB 
     BECMG 2915/2917 18008MPS 
     TEMPO 2917/3002 VRB16MPS 3000 TSRA SQ BKN020CB 
     TEMPO 3002/3012 22015MPS 5000 -SHRA SCT010 BKN030CB
       
UAOO 291430Z 28005MPS 9999 SCT040CB 27/04 Q1007 R23/CLRD70 NOSIG RMK QFE743/0991
TAF AMD UAOO 291400Z 2915/2924 27008MPS 9999 BKN033CB BKN100 
     TEMPO 2915/2920 VRB18MPS 3000 DS SQ BKN015CB
       
UARR 291430Z 28006MPS CAVOK 13/00 Q1016 R04/CLRD70 NOSIG RMK QFE758/1011
TAF UARR 291401Z 2915/2924 27005MPS 9999 BKN033 
     TEMPO 2918/2924 23005G10MPS SCT050CB
       
UASK 291430Z 15004MPS 9999 SCT036CB BKN110 25/07 Q1005 R12/090060 NOSIG RMK QFE728/0971
TAF UASK 291400Z 2915/2924 16008G13MPS 9999 BKN025CB BKN100 
     TEMPO 2915/2921 VRB16MPS 3100 TSRA SQ
       
UASP 291430Z VRB01MPS 9999 BKN040CB BKN130 22/12 Q0999 R21/0///70 NOSIG RMK QFE738/0984
TAF UASP 291400Z 2915/2924 20005MPS 9999 BKN020CB BKN100 
     TEMPO 2915/2918 VRB17MPS 2100 -TSRA SQ BKN007 
     TEMPO 2918/2924 VRB20MPS 2100 -TSRA SQ BKN006
       
UASS 291230Z VRB01MPS CAVOK 29/07 Q1003 NOSIG RMK QFE734/0979
TAF UASS 291100Z 2912/2921 22006G11MPS 9999 BKN040 BKN100
       
UATE 291430Z 02007MPS CAVOK 20/06 Q1020 R30/0///70 NOSIG RMK QFE763/1018
TAF UATE 291102Z 2912/3012 30007G13MPS 9999 SCT033 TX24/3009Z TN13/3002Z 
     BECMG 2916/2918 03005MPS
       
UATG 291430Z 33006MPS CAVOK 18/M01 Q1018 R32/CLRD70 NOSIG RMK QFE766/1021
TAF UATG 291101Z 2912/3012 34011MPS 9999 SCT030CB TX23/3011Z TN08/3001Z 
     BECMG 2918/2920 02005MPS 
     BECMG 3008/3009 22008MPS
       
UATT 291430Z 33009MPS CAVOK 13/M01 Q1010 R31/0///60 NOSIG RMK QFE738/0984
TAF UATT 291100Z 2912/3012 32009MPS 9999 BKN010CB TX18/3011Z TN02/3001Z 
     TEMPO 2912/2916 33014MPS 3000 -SHRA BR 
     FM291600 30005MPS 3000 BR SCT005 BKN010 
     FM300600 24009MPS 9999 BKN020CB 
     TEMPO 3006/3012 24014MPS
       
UAUU 291430Z 36008MPS 9999 -SHRA OVC025CB 06/03 Q1005 R33/290150 NOSIG RMK QFE738/0984
TAF UAUU 291400Z 2915/2924 36007MPS 5000 -SHRA BR SCT006 BKN010CB 
     TEMPO 2915/2918 34014MPS 2000 -TSRA BR 
     BECMG 2918/2919 34005MPS 9999 NSW 
     TEMPO 2918/2924 2000 BR